Time;durP1;ratioP1;P1;durP2;ratioP2;P2;SDS_P1;SDS_P2;PMS_P1;PMS_P2;Temp;Humidity;BMP_temperature;BMP_pressure;BME280_temperature;BME280_humidity;BME280_pressure;Samples;Min_cycle;Max_cycle;Signal;HPM_P1;HPM_P2
2022/04/14 00:01:36;;;;;;;12.55;3.88;;;;;;;7.33;44.37;94272.84;5124134;28;20047;-76
2022/04/14 00:04:02;;;;;;;6.47;2.85;;;;;;;7.32;43.05;94274.69;5123974;28;20051;-76
2022/04/14 00:06:27;;;;;;;7.45;3.55;;;;;;;7.28;43.95;94275.56;5123765;28;20027;-76
2022/04/14 00:08:53;;;;;;;9.35;3.35;;;;;;;7.32;44.43;94274.69;5105869;28;20057;-76
2022/04/14 00:11:19;;;;;;;13.88;5.00;;;;;;;7.31;44.31;94273.13;5123959;28;20229;-76
2022/04/14 00:13:44;;;;;;;9.45;4.80;;;;;;;7.26;44.98;94272.38;5123834;28;20267;-76
2022/04/14 00:16:10;;;;;;;12.88;5.55;;;;;;;7.17;44.80;94273.00;5123702;28;20039;-76
2022/04/14 00:18:35;;;;;;;12.07;5.95;;;;;;;7.13;45.49;94273.84;5123729;28;20027;-76
2022/04/14 00:21:01;;;;;;;14.00;6.55;;;;;;;7.10;45.82;94280.50;5123692;28;20049;-76
2022/04/14 00:23:26;;;;;;;8.77;4.57;;;;;;;7.04;46.30;94276.31;5123607;28;20073;-75
2022/04/14 00:25:52;;;;;;;15.15;4.82;;;;;;;6.98;46.36;94269.47;5123686;28;20027;-76
2022/04/14 00:28:17;;;;;;;11.10;5.22;;;;;;;6.96;46.25;94269.78;5123623;28;20034;-75
2022/04/14 00:30:43;;;;;;;10.50;3.55;;;;;;;6.94;46.06;94268.47;5122609;28;20031;-76
2022/04/14 00:33:08;;;;;;;7.00;3.70;;;;;;;6.89;46.47;94269.31;5105311;28;20027;-75
2022/04/14 00:35:34;;;;;;;7.60;4.15;;;;;;;6.83;46.46;94265.13;5123191;28;20326;-76
2022/04/14 00:37:59;;;;;;;8.15;4.13;;;;;;;6.83;46.41;94273.06;5123359;28;20069;-75
2022/04/14 00:40:25;;;;;;;9.23;4.35;;;;;;;6.84;46.55;94279.97;5123388;28;20218;-75
2022/04/14 00:42:50;;;;;;;8.88;3.90;;;;;;;6.82;46.58;94274.16;5123184;28;20035;-75
2022/04/14 00:45:16;;;;;;;10.80;4.25;;;;;;;6.78;47.05;94276.56;5122863;28;20266;-75
2022/04/14 00:47:41;;;;;;;10.40;4.15;;;;;;;6.73;47.42;94279.25;5123245;28;20019;-75
2022/04/14 00:50:07;;;;;;;7.13;4.45;;;;;;;6.66;47.36;94278.00;5123366;28;20019;-76
2022/04/14 00:52:33;;;;;;;10.07;4.45;;;;;;;6.63;47.74;94279.31;5123100;28;20094;-75
2022/04/14 00:54:59;;;;;;;16.20;5.28;;;;;;;6.56;48.21;94287.59;5122907;28;20048;-76
2022/04/14 00:57:24;;;;;;;12.73;6.25;;;;;;;6.56;48.53;94284.94;5123004;28;20019;-76
2022/04/14 00:59:50;;;;;;;11.45;5.57;;;;;;;6.53;48.71;94279.41;5123008;28;20248;-76
2022/04/14 01:02:15;;;;;;;16.58;6.28;;;;;;;6.56;49.24;94279.66;5123056;28;20305;-76
2022/04/14 01:04:41;;;;;;;19.58;7.07;;;;;;;6.57;49.56;94283.09;5122810;28;20087;-77
2022/04/14 01:07:08;;;;;;;15.48;6.65;;;;;;;6.55;49.82;94282.56;5123006;28;20049;-77
2022/04/14 01:09:34;;;;;;;11.60;5.72;;;;;;;6.49;49.81;94281.81;5122681;28;20027;-77
2022/04/14 01:12:00;;;;;;;11.23;5.38;;;;;;;6.43;48.78;94280.28;5122823;28;20020;-76
2022/04/14 01:14:28;;;;;;;10.23;4.90;;;;;;;6.35;48.00;94280.84;5122656;28;20020;-76
2022/04/14 01:16:59;;;;;;;8.10;4.50;;;;;;;6.33;47.52;94275.84;5122705;28;20024;-76
2022/04/14 01:19:26;;;;;;;9.43;3.60;;;;;;;6.35;47.17;94286.16;5122658;28;20024;-76
2022/04/14 01:21:57;;;;;;;5.25;2.88;;;;;;;6.31;46.83;94277.19;5122691;28;20028;-76
2022/04/14 01:24:23;;;;;;;9.20;2.95;;;;;;;6.30;46.65;94280.91;5122752;28;20028;-76
2022/04/14 01:26:49;;;;;;;9.57;3.33;;;;;;;6.31;46.41;94278.00;5122790;28;20025;-76
2022/04/14 01:29:25;;;;;;;5.97;3.20;;;;;;;6.32;47.24;94282.22;5122863;28;20028;-76
2022/04/14 01:31:52;;;;;;;7.47;3.67;;;;;;;6.35;48.51;94289.63;5122582;28;20020;-76
2022/04/14 01:34:18;;;;;;;7.97;4.50;;;;;;;6.33;49.13;94285.63;5122571;28;20059;-76
2022/04/14 01:36:43;;;;;;;10.45;5.25;;;;;;;6.32;48.67;94287.50;5121900;28;20031;-77
2022/04/14 01:39:10;;;;;;;10.35;5.10;;;;;;;6.31;48.68;94282.47;5122713;28;20038;-77
2022/04/14 01:41:37;;;;;;;9.88;6.05;;;;;;;6.30;48.83;94280.91;5122895;28;20035;-76
2022/04/14 01:44:03;;;;;;;9.27;4.60;;;;;;;6.24;49.15;94288.09;5126905;28;20714;-76
2022/04/14 01:46:29;;;;;;;9.52;4.75;;;;;;;6.20;49.52;94282.53;5126632;28;20069;-77
2022/04/14 01:48:54;;;;;;;9.40;4.65;;;;;;;6.12;49.86;94287.63;5126545;28;20024;-77
2022/04/14 01:51:20;;;;;;;8.57;4.45;;;;;;;6.08;49.96;94283.94;5126570;28;20016;-77
2022/04/14 01:53:45;;;;;;;5.38;3.28;;;;;;;6.10;50.09;94287.13;5126385;28;20246;-76
2022/04/14 01:56:11;;;;;;;6.63;3.63;;;;;;;6.10;49.96;94297.69;5126657;28;20301;-75
2022/04/14 01:58:37;;;;;;;7.80;3.78;;;;;;;6.08;49.80;94292.69;5126540;28;20080;-76
2022/04/14 02:01:02;;;;;;;6.35;3.72;;;;;;;6.05;49.79;94308.34;5126407;28;20037;-76
2022/04/14 02:03:28;;;;;;;8.95;3.83;;;;;;;5.99;50.20;94305.69;5126178;28;20321;-76
2022/04/14 02:05:53;;;;;;;9.73;4.05;;;;;;;5.96;50.40;94308.09;5126015;28;20035;-76
2022/04/14 02:08:18;;;;;;;9.32;3.80;;;;;;;5.94;50.41;94310.19;5125892;28;20076;-76
2022/04/14 02:10:44;;;;;;;6.05;3.40;;;;;;;5.92;50.82;94297.25;5125977;28;20019;-76
2022/04/14 02:13:09;;;;;;;11.73;3.85;;;;;;;5.89;50.97;94308.38;5126176;28;20007;-75
2022/04/14 02:15:35;;;;;;;13.20;4.88;;;;;;;5.88;51.11;94312.06;5125997;28;20019;-76
2022/04/14 02:18:00;;;;;;;9.73;4.70;;;;;;;5.86;51.23;94308.13;5125901;28;20027;-76
2022/04/14 02:20:25;;;;;;;8.82;5.00;;;;;;;5.82;51.75;94299.91;5125808;28;20069;-76
2022/04/14 02:22:51;;;;;;;12.75;6.35;;;;;;;5.79;51.37;94293.31;5125899;28;20026;-75
2022/04/14 02:25:16;;;;;;;10.25;5.40;;;;;;;5.75;51.60;94287.00;5125668;28;20047;-75
2022/04/14 02:27:42;;;;;;;11.65;5.20;;;;;;;5.77;51.94;94292.03;5125964;28;20086;-75
2022/04/14 02:30:08;;;;;;;14.88;5.97;;;;;;;5.78;51.94;94286.47;5126045;28;20035;-75
2022/04/14 02:32:33;;;;;;;13.60;5.68;;;;;;;5.76;52.19;94288.59;5125594;28;20043;-75
2022/04/14 02:34:59;;;;;;;13.75;6.70;;;;;;;5.71;52.14;94278.03;5125630;28;20036;-75
2022/04/14 02:37:24;;;;;;;20.80;7.13;;;;;;;5.67;51.86;94279.63;5125581;28;20191;-75
2022/04/14 02:39:50;;;;;;;16.38;7.68;;;;;;;5.65;52.32;94276.47;5125100;28;20016;-75
2022/04/14 02:42:15;;;;;;;17.65;6.53;;;;;;;5.60;53.09;94284.44;5125539;28;20016;-75
2022/04/14 02:44:41;;;;;;;13.90;6.95;;;;;;;5.51;53.13;94281.53;5125581;28;20064;-76
2022/04/14 02:47:06;;;;;;;11.43;5.53;;;;;;;5.45;52.72;94284.47;5125379;28;20020;-77
2022/04/14 02:49:32;;;;;;;11.70;5.30;;;;;;;5.37;53.06;94289.28;5125436;28;20027;-77
2022/04/14 02:51:57;;;;;;;10.30;5.13;;;;;;;5.34;52.40;94295.09;5124952;28;20019;-77
2022/04/14 02:54:22;;;;;;;9.98;4.70;;;;;;;5.32;51.86;94297.22;5124264;28;20046;-77
2022/04/14 02:56:48;;;;;;;9.57;5.20;;;;;;;5.35;52.03;94299.34;5125222;28;20024;-76
2022/04/14 02:59:13;;;;;;;8.57;4.88;;;;;;;5.33;51.79;94306.75;5125497;28;20023;-76
2022/04/14 03:01:39;;;;;;;8.68;6.03;;;;;;;5.35;51.82;94314.38;5125158;28;20070;-77
2022/04/14 03:04:04;;;;;;;9.77;5.15;;;;;;;5.35;52.28;94315.19;5125105;28;20218;-76
2022/04/14 03:06:30;;;;;;;11.35;5.40;;;;;;;5.38;52.85;94319.94;5125091;28;20116;-75
2022/04/14 03:08:55;;;;;;;18.75;5.63;;;;;;;5.33;52.69;94306.75;5124792;28;20221;-75
2022/04/14 03:11:21;;;;;;;11.57;5.47;;;;;;;5.14;53.06;94303.84;5124837;28;20083;-75
2022/04/14 03:13:46;;;;;;;10.13;5.72;;;;;;;5.14;53.24;94301.22;5124932;28;20019;-75
2022/04/14 03:16:13;;;;;;;12.88;5.57;;;;;;;5.14;53.27;94297.78;5124885;28;20031;-75
2022/04/14 03:18:38;;;;;;;11.05;5.93;;;;;;;5.17;53.62;94299.88;5125100;28;20019;-75
2022/04/14 03:21:04;;;;;;;15.82;5.65;;;;;;;5.18;53.63;94289.06;5124628;28;20050;-75
2022/04/14 03:23:30;;;;;;;11.77;5.75;;;;;;;5.22;53.22;94291.97;5124662;28;20202;-75
2022/04/14 03:25:55;;;;;;;10.20;5.32;;;;;;;5.27;53.74;94294.59;5124690;28;20016;-75
2022/04/14 03:28:21;;;;;;;11.50;5.75;;;;;;;5.28;53.26;94298.03;5124842;28;20030;-75
2022/04/14 03:30:46;;;;;;;11.35;5.82;;;;;;;5.28;53.38;94305.97;5124488;28;20023;-76
2022/04/14 03:33:12;;;;;;;9.38;4.82;;;;;;;5.28;53.40;94303.31;5124597;28;20027;-76
2022/04/14 03:35:37;;;;;;;11.75;5.13;;;;;;;5.28;53.63;94304.09;5124180;28;20080;-76
2022/04/14 03:38:03;;;;;;;10.57;6.00;;;;;;;5.28;54.00;94313.88;5124335;28;20024;-76
2022/04/14 03:40:28;;;;;;;14.40;5.45;;;;;;;5.21;53.95;94304.38;5124363;28;20059;-76
2022/04/14 03:42:55;;;;;;;13.27;6.10;;;;;;;5.17;54.27;94311.25;5124173;28;20024;-76
2022/04/14 03:45:21;;;;;;;13.40;5.55;;;;;;;5.11;54.63;94319.44;5124286;28;20095;-76
2022/04/14 03:47:46;;;;;;;12.02;5.30;;;;;;;5.08;54.67;94320.78;5124027;28;20024;-76
2022/04/14 03:50:12;;;;;;;12.32;5.25;;;;;;;5.06;54.72;94325.53;5124486;28;20084;-76
2022/04/14 03:52:37;;;;;;;14.93;5.65;;;;;;;5.06;55.07;94319.47;5124083;28;20027;-76
2022/04/14 03:55:03;;;;;;;10.93;5.60;;;;;;;4.97;54.98;94313.94;5124010;28;20027;-76
2022/04/14 03:57:28;;;;;;;18.05;5.45;;;;;;;4.98;54.57;94321.56;5124033;28;20296;-77
2022/04/14 03:59:54;;;;;;;15.32;5.60;;;;;;;4.99;54.58;94325.03;5124021;28;20132;-76
2022/04/14 04:02:19;;;;;;;17.40;5.53;;;;;;;5.00;54.81;94326.59;5123952;28;20032;-76
2022/04/14 04:04:45;;;;;;;11.45;5.80;;;;;;;5.01;55.38;94323.69;5123444;28;20329;-76
2022/04/14 04:07:11;;;;;;;12.65;6.43;;;;;;;5.00;55.37;94327.38;5123193;28;20027;-77
2022/04/14 04:09:38;;;;;;;11.80;5.72;;;;;;;5.01;55.75;94331.63;5123575;28;20024;-75
2022/04/14 04:12:04;;;;;;;11.95;6.15;;;;;;;5.07;55.84;94329.78;5123472;28;20065;-76
2022/04/14 04:14:30;;;;;;;11.63;6.03;;;;;;;5.11;55.54;94322.09;5123488;28;20325;-75
2022/04/14 04:16:55;;;;;;;7.60;5.15;;;;;;;5.07;55.30;94327.13;5123606;28;20023;-75
2022/04/14 04:19:21;;;;;;;8.30;4.82;;;;;;;5.06;54.96;94325.53;5123396;28;20020;-75
2022/04/14 04:21:46;;;;;;;18.00;5.80;;;;;;;5.05;55.23;94333.72;5123178;28;20019;-76
2022/04/14 04:24:12;;;;;;;14.63;6.00;;;;;;;5.07;55.33;94334.25;5123733;28;20052;-76
2022/04/14 04:26:37;;;;;;;14.55;6.22;;;;;;;5.08;55.58;94327.94;5123588;28;20019;-77
2022/04/14 04:29:03;;;;;;;14.25;5.78;;;;;;;5.16;55.56;94332.66;5123527;28;20027;-76
2022/04/14 04:31:28;;;;;;;12.95;6.00;;;;;;;5.23;55.60;94333.16;5123453;28;20270;-76
2022/04/14 04:33:54;;;;;;;14.65;6.50;;;;;;;5.30;55.69;94333.69;5123328;28;20043;-75
2022/04/14 04:36:20;;;;;;;12.13;5.78;;;;;;;5.35;55.62;94341.63;5123282;28;20053;-76
2022/04/14 04:38:45;;;;;;;19.33;6.70;;;;;;;5.42;55.47;94336.06;5123460;28;20019;-76
2022/04/14 04:41:11;;;;;;;23.42;6.63;;;;;;;5.51;55.45;94349.50;5122967;28;20080;-76
2022/04/14 04:43:37;;;;;;;23.05;7.47;;;;;;;5.55;55.36;94355.84;5123192;28;20031;-77
2022/04/14 04:46:02;;;;;;;15.52;6.07;;;;;;;5.53;55.23;94355.31;5122816;28;20027;-76
2022/04/14 04:48:28;;;;;;;16.42;6.05;;;;;;;5.59;54.87;94368.25;5123079;28;20031;-76
2022/04/14 04:50:54;;;;;;;18.00;6.95;;;;;;;5.61;54.98;94376.69;5123131;28;20023;-74
2022/04/14 04:53:19;;;;;;;15.35;6.85;;;;;;;5.69;54.12;94387.81;5122812;28;20180;-74
2022/04/14 04:55:45;;;;;;;12.75;6.35;;;;;;;5.70;54.33;94384.91;5122913;28;20080;-74
2022/04/14 04:58:11;;;;;;;20.17;6.53;;;;;;;5.76;54.41;94394.41;5123122;28;20031;-74
2022/04/14 05:00:36;;;;;;;17.63;7.63;;;;;;;5.83;54.07;94394.88;5123173;28;20265;-76
2022/04/14 05:03:07;;;;;;;20.77;8.63;;;;;;;5.90;54.55;94401.75;5123175;28;20023;-77
2022/04/14 05:05:40;;;;;;;19.75;7.60;;;;;;;5.95;54.59;94397.28;5123119;28;20019;-76
2022/04/14 05:08:07;;;;;;;19.85;7.72;;;;;;;6.02;54.43;94397.78;5123359;28;20091;-78
2022/04/14 05:10:33;;;;;;;17.23;7.47;;;;;;;6.11;53.76;94398.00;5123160;28;20016;-77
2022/04/14 05:12:59;;;;;;;35.22;8.43;;;;;;;6.18;53.88;94395.06;5123314;28;20198;-77
2022/04/14 05:15:25;;;;;;;18.80;7.72;;;;;;;6.29;54.04;94406.38;5122914;28;20026;-77
2022/04/14 05:17:50;;;;;;;28.13;7.38;;;;;;;6.29;53.55;94399.25;5125867;28;20015;-78
2022/04/14 05:20:16;;;;;;;28.52;11.40;;;;;;;6.40;53.40;94397.34;5127350;28;20015;-76
2022/04/14 05:22:41;;;;;;;26.10;13.38;;;;;;;6.50;53.20;94394.63;5127464;28;20015;-78
2022/04/14 05:25:07;;;;;;;24.33;11.63;;;;;;;6.57;52.78;94418.16;5108865;28;20099;-83
2022/04/14 05:27:57;;;;;;;25.08;9.13;;;;;;;6.57;52.44;94400.44;5366819;22;20051;-96
2022/04/14 05:30:25;;;;;;;35.58;9.70;;;;;;;6.54;52.99;94397.53;5075114;28;20036;-94
2022/04/14 05:32:51;;;;;;;25.95;8.32;;;;;;;6.65;52.19;94401.69;5090030;28;20052;-93
2022/04/14 05:35:22;;;;;;;16.30;7.38;;;;;;;6.79;51.66;94402.66;5091921;28;20070;-96
2022/04/14 05:37:48;;;;;;;16.73;7.70;;;;;;;6.89;51.87;94401.00;5079624;28;20058;-86
2022/04/14 05:40:14;;;;;;;22.63;9.45;;;;;;;6.89;51.49;94399.16;5072722;28;20032;-89
2022/04/14 05:42:45;;;;;;;14.50;6.72;;;;;;;6.96;52.48;94412.88;5086699;28;20021;-91
2022/04/14 05:45:14;;;;;;;15.43;8.30;;;;;;;6.98;52.73;94410.75;5086715;28;20016;-90
2022/04/14 05:47:39;;;;;;;20.95;8.63;;;;;;;7.10;52.78;94410.38;5086383;28;20042;-87
2022/04/14 05:50:05;;;;;;;21.38;8.65;;;;;;;7.15;52.73;94420.16;5086255;28;20020;-87
2022/04/14 05:52:31;;;;;;;26.73;8.50;;;;;;;7.22;52.40;94420.63;5087290;28;20032;-94
2022/04/14 05:55:01;;;;;;;13.82;7.50;;;;;;;7.26;51.93;94419.00;5087065;28;20024;-84
2022/04/14 05:57:27;;;;;;;22.70;7.63;;;;;;;7.36;51.23;94413.63;5085708;28;20031;-75
2022/04/14 05:59:52;;;;;;;21.98;7.55;;;;;;;7.47;50.80;94426.78;5085221;28;20024;-75
2022/04/14 06:02:18;;;;;;;12.02;6.72;;;;;;;7.57;49.87;94421.38;5085621;28;20020;-75
2022/04/14 06:04:44;;;;;;;15.93;6.97;;;;;;;7.63;49.79;94429.03;5085675;28;20242;-76
2022/04/14 06:07:10;;;;;;;20.70;7.35;;;;;;;7.62;49.63;94422.13;5085536;28;20027;-77
2022/04/14 06:09:35;;;;;;;31.95;7.82;;;;;;;7.73;49.90;94422.81;5085479;28;20044;-77
2022/04/14 06:12:01;;;;;;;15.50;7.32;;;;;;;7.79;49.27;94427.00;5085615;28;20091;-77
2022/04/14 06:14:28;;;;;;;21.27;9.50;;;;;;;7.87;49.04;94438.09;5084393;28;20028;-77
2022/04/14 06:16:53;;;;;;;14.80;7.22;;;;;;;7.93;48.77;94421.81;5084686;28;20048;-77
2022/04/14 06:19:21;;;;;;;18.85;7.50;;;;;;;7.91;48.98;94423.97;5085257;28;20230;-77
2022/04/14 06:21:47;;;;;;;18.75;6.78;;;;;;;8.02;48.27;94417.47;5085614;28;20279;-77
2022/04/14 06:24:12;;;;;;;23.38;7.03;;;;;;;8.14;48.19;94432.22;5085444;28;20067;-77
2022/04/14 06:26:38;;;;;;;17.48;7.75;;;;;;;8.26;47.62;94423.84;5085041;28;20040;-77
2022/04/14 06:29:04;;;;;;;14.43;7.00;;;;;;;8.40;46.86;94428.16;5083889;28;20045;-78
2022/04/14 06:31:29;;;;;;;16.33;6.35;;;;;;;8.53;46.74;94421.41;5085399;28;20223;-77
2022/04/14 06:33:55;;;;;;;15.15;6.78;;;;;;;8.68;46.08;94430.25;5084884;28;20025;-76
2022/04/14 06:36:20;;;;;;;24.15;7.18;;;;;;;8.81;45.36;94429.53;5084969;28;20036;-76
2022/04/14 06:38:46;;;;;;;23.55;8.07;;;;;;;8.99;44.70;94435.94;5085219;28;20338;-77
2022/04/14 06:41:11;;;;;;;24.40;7.50;;;;;;;9.06;46.17;94433.72;5084843;28;20024;-76
2022/04/14 06:43:37;;;;;;;24.25;9.23;;;;;;;9.11;45.00;94430.97;5084422;28;20040;-75
2022/04/14 06:46:03;;;;;;;21.30;7.95;;;;;;;9.14;44.61;94434.91;5084669;28;20017;-75
2022/04/14 06:48:31;;;;;;;18.73;8.00;;;;;;;9.19;43.77;94432.97;5084739;28;20028;-74
2022/04/14 06:50:58;;;;;;;13.38;6.20;;;;;;;9.26;44.26;94437.13;5084539;28;20100;-74
2022/04/14 06:53:23;;;;;;;26.67;6.97;;;;;;;9.36;42.69;94437.78;5084630;28;20032;-75
2022/04/14 06:55:49;;;;;;;18.50;6.50;;;;;;;9.41;42.63;94432.34;5084684;28;20055;-76
2022/04/14 06:58:15;;;;;;;11.95;5.57;;;;;;;9.45;42.16;94443.22;5084468;28;20078;-74
2022/04/14 07:00:40;;;;;;;11.65;5.50;;;;;;;9.46;42.12;94433.34;5084648;28;20051;-75
2022/04/14 07:03:06;;;;;;;13.25;5.45;;;;;;;9.60;41.93;94440.28;5084664;28;20043;-76
2022/04/14 07:05:32;;;;;;;15.75;6.03;;;;;;;9.72;41.74;94452.34;5084467;28;20032;-76
2022/04/14 07:07:57;;;;;;;23.75;5.97;;;;;;;9.87;41.70;94437.97;5084434;28;20303;-74
2022/04/14 07:10:23;;;;;;;12.45;4.85;;;;;;;10.01;40.48;94446.75;5084441;28;20024;-76
2022/04/14 07:12:48;;;;;;;14.98;4.78;;;;;;;10.15;40.15;94460.09;5066639;28;20096;-76
2022/04/14 07:15:14;;;;;;;10.57;5.50;;;;;;;10.22;40.14;94460.50;5084413;28;20036;-75
2022/04/14 07:17:40;;;;;;;23.08;5.57;;;;;;;10.31;39.78;94461.41;5084070;28;20215;-76
2022/04/14 07:20:09;;;;;;;9.32;4.90;;;;;;;10.42;39.27;94448.66;5084138;28;20053;-76
2022/04/14 07:22:50;;;;;;;15.02;4.95;;;;;;;10.46;39.58;94446.97;5084178;28;20254;-75
2022/04/14 07:25:16;;;;;;;23.45;5.30;;;;;;;10.49;39.55;94445.63;5084246;28;20016;-75
2022/04/14 07:27:42;;;;;;;12.55;4.43;;;;;;;10.59;39.08;94440.88;5083891;28;20033;-74
2022/04/14 07:30:09;;;;;;;12.98;4.45;;;;;;;10.70;39.56;94448.66;5083770;28;20075;-73
2022/04/14 07:32:39;;;;;;;12.50;4.78;;;;;;;10.86;39.17;94444.56;5083761;28;20028;-75
2022/04/14 07:35:05;;;;;;;13.73;4.93;;;;;;;10.98;38.45;94450.16;5083740;28;20040;-75
2022/04/14 07:37:31;;;;;;;10.80;6.10;;;;;;;11.08;38.02;94448.38;5083781;28;20024;-75
2022/04/14 07:39:57;;;;;;;15.90;5.35;;;;;;;10.96;38.38;94433.69;5083467;28;20044;-75
2022/04/14 07:42:30;;;;;;;15.88;5.18;;;;;;;11.04;38.12;94427.63;5083631;28;20035;-75
2022/04/14 07:44:56;;;;;;;15.63;4.65;;;;;;;11.12;37.60;94428.78;5083664;28;20008;-74
2022/04/14 07:47:21;;;;;;;10.75;5.40;;;;;;;10.94;37.63;94425.19;5083555;28;20036;-76
2022/04/14 07:49:46;;;;;;;14.07;5.80;;;;;;;11.02;37.49;94421.81;5083666;28;20074;-76
2022/04/14 07:52:13;;;;;;;11.57;4.75;;;;;;;11.13;38.02;94414.34;5083427;28;20091;-75
2022/04/14 07:54:38;;;;;;;15.05;5.28;;;;;;;11.28;37.28;94418.56;5065532;28;20150;-75
2022/04/14 07:57:04;;;;;;;14.18;5.07;;;;;;;11.34;36.84;94416.56;5083555;28;20016;-76
2022/04/14 07:59:29;;;;;;;14.68;6.45;;;;;;;11.43;36.79;94422.72;5083302;28;20092;-75
2022/04/14 08:02:00;;;;;;;11.80;5.03;;;;;;;11.49;37.14;94415.41;5083402;28;20021;-75
2022/04/14 08:04:26;;;;;;;11.68;5.35;;;;;;;11.52;36.81;94420.09;5083387;28;20326;-76
2022/04/14 08:06:52;;;;;;;13.18;5.07;;;;;;;11.64;36.83;94423.81;5083152;28;20024;-75
2022/04/14 08:09:17;;;;;;;20.52;5.10;;;;;;;11.73;36.23;94421.19;5083643;28;20085;-76
2022/04/14 08:11:43;;;;;;;14.90;4.60;;;;;;;11.81;35.82;94417.78;5083177;28;20044;-76
2022/04/14 08:14:08;;;;;;;13.02;4.75;;;;;;;11.92;35.32;94423.66;5083000;28;20024;-75
2022/04/14 08:16:34;;;;;;;8.50;4.90;;;;;;;12.01;35.01;94421.06;5083063;28;20246;-76
2022/04/14 08:18:59;;;;;;;10.88;5.13;;;;;;;12.07;35.71;94425.16;5082998;28;20020;-73
2022/04/14 08:21:24;;;;;;;22.58;5.15;;;;;;;12.17;35.85;94424.06;5082646;28;20078;-73
2022/04/14 08:23:53;;;;;;;14.10;5.47;;;;;;;12.29;35.41;94418.94;5082830;28;20319;-76
2022/04/14 08:26:19;;;;;;;13.73;5.20;;;;;;;12.42;34.61;94415.38;5083026;28;20246;-76
2022/04/14 08:28:45;;;;;;;15.10;5.40;;;;;;;12.47;34.35;94422.44;5082724;28;20040;-75
2022/04/14 08:31:12;;;;;;;9.05;4.75;;;;;;;12.44;34.25;94413.16;5082689;28;20392;-74
2022/04/14 08:33:38;;;;;;;10.95;5.03;;;;;;;12.45;34.58;94414.72;5064835;28;20039;-75
2022/04/14 08:36:05;;;;;;;16.83;6.80;;;;;;;12.57;34.46;94405.31;5082514;28;20323;-75
2022/04/14 08:38:30;;;;;;;10.20;5.30;;;;;;;12.71;34.31;94419.34;5082691;28;20185;-76
2022/04/14 08:41:02;;;;;;;14.27;5.97;;;;;;;12.89;33.22;94425.53;5082593;28;20029;-75
2022/04/14 08:43:33;;;;;;;12.63;5.82;;;;;;;12.88;32.15;94404.44;5082558;28;20028;-76
2022/04/14 08:46:01;;;;;;;25.35;6.20;;;;;;;12.90;33.14;94405.69;5082731;28;20150;-78
2022/04/14 08:48:27;;;;;;;15.98;6.50;;;;;;;13.02;33.72;94408.50;5082532;28;20032;-76
2022/04/14 08:50:54;;;;;;;20.90;5.35;;;;;;;13.21;33.50;94402.09;5082230;28;20087;-76
2022/04/14 08:53:24;;;;;;;21.70;6.35;;;;;;;13.39;31.76;94405.53;5082603;28;20017;-77
2022/04/14 08:55:50;;;;;;;11.65;5.78;;;;;;;13.44;31.26;94397.34;5083060;28;20196;-77
2022/04/14 08:58:18;;;;;;;13.98;6.25;;;;;;;13.44;30.82;94405.41;5082649;28;20192;-76
2022/04/14 09:00:45;;;;;;;14.18;6.85;;;;;;;13.55;31.00;94395.91;5082527;28;20341;-77
2022/04/14 09:03:13;;;;;;;10.23;5.10;;;;;;;13.62;31.26;94398.13;5082364;28;20020;-77
2022/04/14 09:05:38;;;;;;;11.70;5.53;;;;;;;13.71;31.76;94393.50;5082497;28;20311;-74
2022/04/14 09:08:04;;;;;;;23.88;8.00;;;;;;;13.85;31.50;94390.63;5082296;28;20020;-76
2022/04/14 09:10:30;;;;;;;17.63;6.13;;;;;;;13.94;30.91;94385.25;5082404;28;20070;-76
2022/04/14 09:12:55;;;;;;;14.95;6.40;;;;;;;14.05;30.39;94381.91;5082393;28;20020;-77
2022/04/14 09:15:21;;;;;;;15.80;6.72;;;;;;;14.09;30.01;94379.38;5082331;28;20040;-77
2022/04/14 09:17:46;;;;;;;10.15;6.32;;;;;;;14.10;29.66;94380.91;5082657;28;20024;-76
2022/04/14 09:20:28;;;;;;;19.40;5.65;;;;;;;14.16;30.77;94384.22;5082605;28;20031;-76
2022/04/14 09:23:20;;;;;;;15.07;6.65;;;;;;;14.15;29.86;94380.75;5082555;28;20028;-76
2022/04/14 09:25:50;;;;;;;12.43;5.93;;;;;;;14.12;30.57;94381.38;5082277;28;20020;-75
2022/04/14 09:28:18;;;;;;;11.60;5.15;;;;;;;14.17;30.33;94377.75;5082190;28;20272;-76
2022/04/14 09:31:11;;;;;;;21.42;5.13;;;;;;;14.29;30.12;94374.38;5082068;28;20067;-77
2022/04/14 09:33:45;;;;;;;19.77;5.38;;;;;;;14.39;30.20;94371.31;5082284;28;20024;-76
2022/04/14 09:36:14;;;;;;;33.72;6.45;;;;;;;14.57;31.06;94364.78;5081937;28;20028;-75
2022/04/14 09:39:00;;;;;;;12.77;4.95;;;;;;;14.80;30.68;94372.53;5081767;28;20052;-77
2022/04/14 09:41:40;;;;;;;9.55;4.60;;;;;;;14.99;30.04;94370.16;5082090;28;20035;-77
2022/04/14 09:44:11;;;;;;;10.85;4.78;;;;;;;15.15;29.25;94366.88;5082204;28;20039;-76
2022/04/14 09:46:38;;;;;;;9.57;4.75;;;;;;;15.29;28.42;94367.38;5081900;28;20047;-76
2022/04/14 09:49:11;;;;;;;14.52;3.92;;;;;;;15.36;28.11;94367.63;5080747;28;20046;-77
2022/04/14 09:51:39;;;;;;;22.42;4.72;;;;;;;15.50;29.01;94355.81;5080372;28;20059;-77
2022/04/14 09:54:16;;;;;;;16.23;4.28;;;;;;;15.52;28.51;94367.00;5080866;28;20090;-76
2022/04/14 09:56:53;;;;;;;10.23;3.85;;;;;;;15.65;29.24;94361.34;5081766;28;20153;-77
2022/04/14 09:59:20;;;;;;;7.50;3.58;;;;;;;15.78;29.01;94351.44;5082024;28;20195;-77
2022/04/14 10:01:47;;;;;;;8.70;3.28;;;;;;;15.93;29.45;94349.22;5063563;28;20030;-77
2022/04/14 10:04:36;;;;;;;8.32;4.18;;;;;;;16.06;28.95;94353.50;5082969;28;20027;-76
2022/04/14 10:07:07;;;;;;;12.75;4.03;;;;;;;16.16;28.09;94358.44;5084146;28;20036;-76
2022/04/14 10:09:35;;;;;;;8.13;3.65;;;;;;;16.24;27.78;94349.47;5083725;28;20051;-77
2022/04/14 10:12:01;;;;;;;6.85;3.25;;;;;;;16.36;27.79;94345.97;5083707;28;20032;-76
2022/04/14 10:14:26;;;;;;;13.27;3.80;;;;;;;16.37;27.23;94338.69;5083523;28;20024;-76
2022/04/14 10:16:53;;;;;;;5.93;3.15;;;;;;;16.30;25.45;94341.16;5083988;28;20257;-77
2022/04/14 10:19:19;;;;;;;7.78;3.50;;;;;;;16.27;25.36;94339.94;5085583;28;20326;-76
2022/04/14 10:21:45;;;;;;;7.82;3.10;;;;;;;16.22;24.95;94332.88;5085373;28;20065;-76
2022/04/14 10:24:14;;;;;;;14.55;3.72;;;;;;;16.20;25.15;94328.94;5085221;28;20029;-76
2022/04/14 10:26:40;;;;;;;9.35;3.22;;;;;;;16.23;26.09;94328.28;5084962;28;20058;-76
2022/04/14 10:29:07;;;;;;;6.85;3.75;;;;;;;16.35;26.14;94332.88;5085209;28;20051;-77
2022/04/14 10:31:36;;;;;;;13.75;3.13;;;;;;;16.41;25.51;94334.22;5085347;28;20024;-76
2022/04/14 10:34:04;;;;;;;12.68;3.10;;;;;;;16.37;26.25;94330.63;5085317;28;20020;-77
2022/04/14 10:36:42;;;;;;;7.72;3.47;;;;;;;16.42;25.84;94335.75;5084766;28;20089;-76
2022/04/14 10:39:12;;;;;;;11.77;3.83;;;;;;;16.42;26.63;94338.44;5084957;28;20020;-77
2022/04/14 10:41:42;;;;;;;6.50;2.92;;;;;;;16.51;26.65;94328.38;5067269;28;20058;-76
2022/04/14 10:44:07;;;;;;;12.93;3.10;;;;;;;16.67;26.80;94335.72;5085035;28;20095;-77
2022/04/14 10:46:40;;;;;;;8.82;3.30;;;;;;;16.77;26.34;94337.94;5085065;28;20028;-76
2022/04/14 10:49:12;;;;;;;;;;;;;;;16.85;24.59;94323.59;5085364;28;20036;-77
2022/04/14 10:51:38;;;;;;;5.75;3.97;;;;;;;16.73;24.55;94328.97;5084789;28;19904;-76
2022/04/14 10:54:09;;;;;;;8.75;3.30;;;;;;;16.73;24.92;94335.16;5084649;28;20066;-76
2022/04/14 10:56:34;;;;;;;8.02;3.45;;;;;;;16.79;24.61;94327.63;5084559;28;20028;-76
2022/04/14 10:59:03;;;;;;;15.60;3.95;;;;;;;16.73;25.59;94324.41;5084366;28;20099;-76
2022/04/14 11:01:50;;;;;;;8.40;3.65;;;;;;;16.60;25.57;94331.69;5084467;28;20024;-76
2022/04/14 11:04:45;;;;;;;13.70;3.70;;;;;;;16.73;26.70;94324.41;5084463;28;20249;-77
2022/04/14 11:07:15;;;;;;;4.97;3.30;;;;;;;16.90;26.15;94323.38;5079439;28;20131;-76
2022/04/14 11:09:50;;;;;;;11.60;3.47;;;;;;;17.08;26.20;94320.41;5084237;28;20157;-76
2022/04/14 11:12:24;;;;;;;45.38;5.35;;;;;;;17.28;26.36;94324.00;5084348;28;20024;-76
2022/04/14 11:14:49;;;;;;;8.98;3.80;;;;;;;17.52;26.73;94323.88;5083844;28;20028;-77
2022/04/14 11:17:37;;;;;;;27.98;5.45;;;;;;;17.80;25.66;94323.03;5084424;28;20028;-77
2022/04/14 11:20:37;;;;;;;8.63;3.55;;;;;;;18.00;25.36;94313.94;5084412;28;20096;-76
2022/04/14 11:23:13;;;;;;;9.15;3.92;;;;;;;18.16;24.79;94313.94;5084045;28;20059;-76
2022/04/14 11:25:41;;;;;;;20.33;3.72;;;;;;;18.36;25.56;94308.59;5083854;28;20036;-76
2022/04/14 11:28:33;;;;;;;14.40;3.97;;;;;;;18.59;24.37;94314.13;5083663;28;20037;-76
2022/04/14 11:31:14;;;;;;;8.60;4.05;;;;;;;18.53;23.11;94302.81;5084008;28;20020;-76
2022/04/14 11:33:43;;;;;;;8.95;4.00;;;;;;;18.63;23.55;94310.34;5083814;28;20057;-77